Time;durP1;ratioP1;P1;durP2;ratioP2;P2;SDS_P1;SDS_P2;PMS_P1;PMS_P2;Temp;Humidity;BMP_temperature;BMP_pressure;BME280_temperature;BME280_humidity;BME280_pressure;Samples;Min_cycle;Max_cycle;Signal;HPM_P1;HPM_P2
2021/06/28 00:00:21;;;;;;;58.00;2.30;;;21.60;1.00;;;;;;5054504;28;20451;-74
2021/06/28 00:02:48;;;;;;;57.97;2.23;;;21.70;1.00;;;;;;5054297;28;20479;-74
2021/06/28 00:05:17;;;;;;;58.03;2.50;;;21.80;1.00;;;;;;5054570;28;20472;-74
2021/06/28 00:07:46;;;;;;;58.13;2.67;;;21.80;1.00;;;;;;5054457;28;20905;-74
2021/06/28 00:10:16;;;;;;;58.03;2.20;;;21.90;1.00;;;;;;5054443;28;20882;-74
2021/06/28 00:12:44;;;;;;;58.13;2.40;;;21.80;1.00;;;;;;5053891;28;20474;-74
2021/06/28 00:15:14;;;;;;;58.40;2.30;;;21.80;1.00;;;;;;5053990;28;20553;-74
2021/06/28 00:17:41;;;;;;;58.67;2.47;;;21.70;1.00;;;;;;5054367;28;20527;-74
2021/06/28 00:20:10;;;;;;;58.50;2.53;;;21.50;1.00;;;;;;5053913;28;20547;-74
2021/06/28 00:22:37;;;;;;;58.13;3.03;;;21.20;1.00;;;;;;5053807;28;20552;-74
2021/06/28 00:25:09;;;;;;;58.30;2.70;;;21.00;1.00;;;;;;5053856;28;20566;-74
2021/06/28 00:27:36;;;;;;;58.00;2.43;;;20.80;1.00;;;;;;5053941;28;20458;-74
2021/06/28 00:30:05;;;;;;;58.27;2.33;;;20.70;1.00;;;;;;5054292;28;20812;-74
2021/06/28 00:32:32;;;;;;;58.40;2.60;;;20.60;1.00;;;;;;5053541;28;21039;-73
2021/06/28 00:34:59;;;;;;;58.50;2.50;;;20.50;1.00;;;;;;5053932;28;20856;-74
2021/06/28 00:37:26;;;;;;;58.47;2.60;;;20.40;1.00;;;;;;5054207;28;20483;-74
2021/06/28 00:39:52;;;;;;;58.80;2.70;;;20.30;1.00;;;;;;5053777;28;20492;-74
2021/06/28 00:42:22;;;;;;;58.17;2.40;;;20.30;1.00;;;;;;5053309;28;20540;-73
2021/06/28 00:44:49;;;;;;;58.57;2.60;;;20.20;1.00;;;;;;5052869;28;20972;-74
2021/06/28 00:47:16;;;;;;;58.50;2.60;;;20.20;1.00;;;;;;5053791;28;20530;-74
2021/06/28 00:49:43;;;;;;;58.27;2.60;;;20.20;1.00;;;;;;5053832;28;20893;-74
2021/06/28 00:52:10;;;;;;;58.53;3.00;;;20.10;1.00;;;;;;5053170;28;20539;-74
2021/06/28 00:54:38;;;;;;;58.53;2.80;;;20.10;1.00;;;;;;5053332;28;20535;-74
2021/06/28 00:57:06;;;;;;;58.17;2.67;;;20.10;1.00;;;;;;5053657;28;20574;-74
2021/06/28 00:59:35;;;;;;;58.30;2.70;;;20.10;1.00;;;;;;5053522;28;20450;-73
2021/06/28 01:02:03;;;;;;;58.07;2.50;;;20.10;1.00;;;;;;5053181;28;20528;-74
2021/06/28 01:04:31;;;;;;;58.47;2.70;;;20.10;1.00;;;;;;5053306;28;20580;-73
2021/06/28 01:06:58;;;;;;;58.50;2.60;;;20.10;1.00;;;;;;5053243;28;20460;-73
2021/06/28 01:09:25;;;;;;;58.17;2.50;;;20.10;1.00;;;;;;5053088;28;20448;-74
2021/06/28 01:11:52;;;;;;;58.53;2.70;;;20.10;1.00;;;;;;5053147;28;20615;-73
2021/06/28 01:14:19;;;;;;;58.33;2.90;;;20.10;1.00;;;;;;5053101;28;20911;-73
2021/06/28 01:16:47;;;;;;;58.80;3.00;;;20.10;1.00;;;;;;5053045;28;20480;-73
2021/06/28 01:19:16;;;;;;;58.17;2.37;;;20.10;1.00;;;;;;5052955;28;21018;-73
2021/06/28 01:21:44;;;;;;;57.97;2.80;;;20.10;1.00;;;;;;5052467;28;20444;-72
2021/06/28 01:24:12;;;;;;;58.50;2.90;;;20.10;1.00;;;;;;5052999;28;20560;-73
2021/06/28 01:26:39;;;;;;;58.20;2.60;;;20.10;1.00;;;;;;5052996;28;20441;-73
2021/06/28 01:29:06;;;;;;;58.27;2.67;;;20.00;1.00;;;;;;5052828;28;20891;-73
2021/06/28 01:31:33;;;;;;;58.17;2.77;;;20.00;1.00;;;;;;5052559;28;20448;-73
2021/06/28 01:34:00;;;;;;;59.00;2.70;;;20.00;1.00;;;;;;5052653;28;20580;-73
2021/06/28 01:36:27;;;;;;;58.47;2.80;;;20.00;1.00;;;;;;5052434;28;20483;-73
2021/06/28 01:38:54;;;;;;;58.53;2.80;;;20.00;1.00;;;;;;5052883;28;20455;-73
2021/06/28 01:41:22;;;;;;;58.17;2.60;;;19.90;1.00;;;;;;5052423;28;20483;-73
2021/06/28 01:43:49;;;;;;;58.03;2.50;;;19.90;1.00;;;;;;5052422;28;20527;-73
2021/06/28 01:46:16;;;;;;;58.27;2.40;;;19.90;1.00;;;;;;5052534;28;20796;-73
2021/06/28 01:48:43;;;;;;;58.03;2.40;;;19.90;1.00;;;;;;5052419;28;20491;-74
2021/06/28 01:51:11;;;;;;;58.73;2.77;;;19.90;1.00;;;;;;5052462;28;20815;-73
2021/06/28 01:53:38;;;;;;;58.37;2.73;;;19.90;1.00;;;;;;5052313;28;20484;-73
2021/06/28 01:56:06;;;;;;;57.93;2.70;;;19.90;1.00;;;;;;5052464;28;20477;-73
2021/06/28 01:58:35;;;;;;;58.67;2.80;;;19.90;1.00;;;;;;5052275;28;20492;-73
2021/06/28 02:01:05;;;;;;;58.60;2.90;;;19.90;1.00;;;;;;5052138;28;20536;-74
2021/06/28 02:03:37;;;;;;;58.13;2.50;;;20.00;1.00;;;;;;5051834;28;20563;-73
2021/06/28 02:06:04;;;;;;;58.60;2.60;;;20.00;1.00;;;;;;5052541;28;20457;-74
2021/06/28 02:08:33;;;;;;;58.23;2.70;;;20.00;1.00;;;;;;5052293;28;20544;-74
2021/06/28 02:11:03;;;;;;;58.37;2.60;;;19.90;1.00;;;;;;5052074;28;20450;-73
2021/06/28 02:13:32;;;;;;;58.17;2.60;;;19.90;1.00;;;;;;5051853;28;20500;-74
2021/06/28 02:16:01;;;;;;;57.80;2.30;;;19.90;1.00;;;;;;5051722;28;20568;-74
2021/06/28 02:18:28;;;;;;;58.73;2.70;;;20.00;1.00;;;;;;5052321;28;20451;-74
2021/06/28 02:20:56;;;;;;;58.37;2.43;;;20.00;1.00;;;;;;5051942;28;20528;-74
2021/06/28 02:23:30;;;;;;;58.07;2.70;;;20.00;1.00;;;;;;5051728;28;20496;-74
2021/06/28 02:25:58;;;;;;;58.03;2.53;;;20.00;1.00;;;;;;5051922;28;20543;-74
2021/06/28 02:28:26;;;;;;;58.40;2.50;;;20.00;1.00;;;;;;5051676;28;20450;-74
2021/06/28 02:30:54;;;;;;;58.27;2.50;;;20.00;1.00;;;;;;5052023;28;20537;-73
2021/06/28 02:33:23;;;;;;;57.97;2.63;;;20.00;1.00;;;;;;5051816;28;20500;-74
2021/06/28 02:35:51;;;;;;;59.10;3.53;;;20.00;1.00;;;;;;5051476;28;20571;-73
2021/06/28 02:38:18;;;;;;;58.17;2.60;;;20.00;1.00;;;;;;5051719;28;20528;-74
2021/06/28 02:40:45;;;;;;;58.47;2.30;;;20.00;1.00;;;;;;5051714;28;20828;-74
2021/06/28 02:43:12;;;;;;;58.27;2.60;;;19.90;1.00;;;;;;5051769;28;20560;-74
2021/06/28 02:45:39;;;;;;;58.70;2.80;;;19.90;1.00;;;;;;5051798;28;20477;-74
2021/06/28 02:48:07;;;;;;;58.07;2.40;;;19.90;1.00;;;;;;5051776;28;20565;-74
2021/06/28 02:50:36;;;;;;;58.47;2.60;;;19.90;1.00;;;;;;5051701;28;20449;-74
2021/06/28 02:53:03;;;;;;;58.37;2.40;;;19.90;1.00;;;;;;5051424;28;20552;-74
2021/06/28 02:55:30;;;;;;;58.50;2.70;;;19.90;1.00;;;;;;5051428;28;20460;-74
2021/06/28 02:57:57;;;;;;;58.13;2.40;;;19.90;1.00;;;;;;5051586;28;20472;-74
2021/06/28 03:00:24;;;;;;;58.33;2.47;;;19.80;1.00;;;;;;5051720;28;20878;-73
2021/06/28 03:02:52;;;;;;;58.60;3.27;;;19.80;1.00;;;;;;5051067;28;20544;-74
2021/06/28 03:05:19;;;;;;;57.87;2.50;;;19.80;1.00;;;;;;5051447;28;20506;-74
2021/06/28 03:07:47;;;;;;;58.20;2.80;;;19.80;1.00;;;;;;5051816;28;20532;-73
2021/06/28 03:10:15;;;;;;;58.07;2.77;;;19.70;1.00;;;;;;5055863;28;21035;-73
2021/06/28 03:12:43;;;;;;;58.50;2.50;;;19.70;1.00;;;;;;5055152;28;20479;-74
2021/06/28 03:15:12;;;;;;;58.47;2.80;;;19.70;1.00;;;;;;5055571;28;20440;-73
2021/06/28 03:17:39;;;;;;;58.27;2.60;;;19.80;1.00;;;;;;5055266;28;20488;-74
2021/06/28 03:20:08;;;;;;;57.97;2.40;;;19.70;1.00;;;;;;5055264;28;20454;-74
2021/06/28 03:22:35;;;;;;;58.07;2.30;;;19.70;1.00;;;;;;5054747;28;20501;-74
2021/06/28 03:25:04;;;;;;;58.80;3.13;;;19.70;1.00;;;;;;5055160;28;20563;-74
2021/06/28 03:27:31;;;;;;;58.53;2.70;;;19.70;1.00;;;;;;5055079;28;20444;-74
2021/06/28 03:29:58;;;;;;;58.10;2.93;;;19.70;1.00;;;;;;5055201;28;20490;-74
2021/06/28 03:32:25;;;;;;;57.97;2.50;;;19.60;1.00;;;;;;5054717;28;20448;-74
2021/06/28 03:34:52;;;;;;;58.07;2.80;;;19.60;1.00;;;;;;5055117;28;20502;-73
2021/06/28 03:37:19;;;;;;;58.07;2.50;;;19.60;1.00;;;;;;5054890;28;20574;-74
2021/06/28 03:39:46;;;;;;;58.17;2.70;;;19.60;1.00;;;;;;5054844;28;20449;-73
2021/06/28 03:42:14;;;;;;;58.17;2.40;;;19.60;1.00;;;;;;5054574;28;20539;-73
2021/06/28 03:44:41;;;;;;;58.23;2.80;;;19.60;1.00;;;;;;5054979;28;20487;-74
2021/06/28 03:47:08;;;;;;;58.40;2.90;;;19.70;1.00;;;;;;5054813;28;20795;-74
2021/06/28 03:49:36;;;;;;;58.13;2.50;;;19.70;1.00;;;;;;5054695;28;20583;-73
2021/06/28 03:52:03;;;;;;;58.27;2.70;;;19.70;1.00;;;;;;5054562;28;20537;-74
2021/06/28 03:54:30;;;;;;;58.07;2.57;;;19.70;1.00;;;;;;5054564;28;20537;-74
2021/06/28 03:56:57;;;;;;;58.23;2.90;;;19.70;1.00;;;;;;5054454;28;20575;-74
2021/06/28 03:59:25;;;;;;;59.97;3.20;;;19.70;1.00;;;;;;5054458;28;20540;-74
2021/06/28 04:01:52;;;;;;;58.50;2.70;;;19.70;1.00;;;;;;5054256;28;20493;-74
2021/06/28 04:04:20;;;;;;;57.97;2.47;;;19.70;1.00;;;;;;5054306;28;20542;-74
2021/06/28 04:06:47;;;;;;;58.63;2.80;;;19.70;1.00;;;;;;5054362;28;20488;-74
2021/06/28 04:09:13;;;;;;;58.77;2.53;;;19.70;1.00;;;;;;5054399;28;20453;-73
2021/06/28 04:11:40;;;;;;;58.27;2.80;;;19.70;1.00;;;;;;5054210;28;20635;-74
2021/06/28 04:14:07;;;;;;;58.27;3.30;;;19.70;1.00;;;;;;5054184;28;20474;-73
2021/06/28 04:16:35;;;;;;;58.13;2.80;;;19.80;1.00;;;;;;5053988;28;20526;-73
2021/06/28 04:19:02;;;;;;;58.23;2.70;;;19.80;1.00;;;;;;5053874;28;20541;-73
2021/06/28 04:21:31;;;;;;;58.57;2.80;;;19.80;1.00;;;;;;5052964;28;20453;-73
2021/06/28 04:24:02;;;;;;;57.87;2.47;;;19.80;1.00;;;;;;5053929;28;20501;-74
2021/06/28 04:26:29;;;;;;;58.37;2.70;;;19.80;1.00;;;;;;5054086;28;20821;-73
2021/06/28 04:28:55;;;;;;;58.37;2.90;;;19.90;1.00;;;;;;5054119;28;20896;-73
2021/06/28 04:31:22;;;;;;;57.87;2.57;;;20.00;1.00;;;;;;5054040;28;20476;-73
2021/06/28 04:33:51;;;;;;;58.27;2.37;;;20.00;1.00;;;;;;5053767;28;20459;-74
2021/06/28 04:36:17;;;;;;;58.03;2.83;;;20.10;1.00;;;;;;5054072;28;20937;-73
2021/06/28 04:38:44;;;;;;;58.50;2.40;;;20.10;1.00;;;;;;5053838;28;20485;-74
2021/06/28 04:41:11;;;;;;;57.97;2.50;;;20.30;1.00;;;;;;5053670;28;20545;-74
2021/06/28 04:43:38;;;;;;;58.03;2.70;;;20.30;1.00;;;;;;5053410;28;20556;-74
2021/06/28 04:46:05;;;;;;;58.27;2.70;;;20.40;1.00;;;;;;5053703;28;20509;-74
2021/06/28 04:48:32;;;;;;;58.17;2.37;;;20.40;1.00;;;;;;5053808;28;20491;-74
2021/06/28 04:51:00;;;;;;;58.47;2.90;;;20.40;1.00;;;;;;5053635;28;20446;-74
2021/06/28 04:53:27;;;;;;;58.40;2.70;;;20.40;1.00;;;;;;5053675;28;20561;-74
2021/06/28 04:55:54;;;;;;;58.40;2.97;;;20.40;1.00;;;;;;5053601;28;20540;-74
2021/06/28 04:58:21;;;;;;;58.07;2.40;;;20.40;1.00;;;;;;5053155;28;20487;-74
2021/06/28 05:00:47;;;;;;;58.50;2.53;;;20.40;1.00;;;;;;5053485;28;20888;-74
2021/06/28 05:03:14;;;;;;;58.27;2.50;;;20.40;1.00;;;;;;5053142;28;20908;-74
2021/06/28 05:05:41;;;;;;;58.27;3.00;;;20.30;1.00;;;;;;5053329;28;20487;-74
2021/06/28 05:08:10;;;;;;;58.13;2.80;;;20.30;1.00;;;;;;5053264;28;20533;-74
2021/06/28 05:10:36;;;;;;;57.97;2.80;;;20.30;1.00;;;;;;5053205;28;20454;-74
2021/06/28 05:13:03;;;;;;;58.47;2.50;;;20.20;1.00;;;;;;5052781;28;20541;-74
2021/06/28 05:15:31;;;;;;;58.03;2.57;;;20.20;1.00;;;;;;5053456;28;20538;-74
2021/06/28 05:17:58;;;;;;;58.67;2.70;;;20.10;1.00;;;;;;5053169;28;20575;-73
2021/06/28 05:20:24;;;;;;;58.47;2.43;;;20.10;1.00;;;;;;5053206;28;20541;-74
2021/06/28 05:22:51;;;;;;;58.67;2.87;;;20.10;1.00;;;;;;5052703;28;20488;-74
2021/06/28 05:25:19;;;;;;;58.70;2.50;;;20.10;1.00;;;;;;5052881;28;20493;-74
2021/06/28 05:27:46;;;;;;;58.30;2.50;;;20.10;1.00;;;;;;5052814;28;20884;-74
2021/06/28 05:30:15;;;;;;;58.37;2.73;;;20.10;1.00;;;;;;5053182;28;20474;-74
2021/06/28 05:32:43;;;;;;;58.40;2.40;;;20.10;1.00;;;;;;5052426;28;20492;-74
2021/06/28 05:35:11;;;;;;;58.10;2.40;;;20.10;1.00;;;;;;5052671;28;20445;-74
2021/06/28 05:37:39;;;;;;;58.40;2.93;;;20.10;1.00;;;;;;5052515;28;20521;-74
2021/06/28 05:40:08;;;;;;;58.37;2.80;;;20.20;1.00;;;;;;5052995;28;20493;-74
2021/06/28 05:42:36;;;;;;;58.40;2.60;;;20.20;1.00;;;;;;5052278;28;21040;-74
2021/06/28 05:45:04;;;;;;;58.30;2.70;;;20.20;1.00;;;;;;5052537;28;20817;-74
2021/06/28 05:47:32;;;;;;;58.63;2.90;;;20.20;1.00;;;;;;5052645;28;20866;-74
2021/06/28 05:49:59;;;;;;;58.27;2.97;;;20.30;1.00;;;;;;5052721;28;20503;-74
2021/06/28 05:52:26;;;;;;;58.30;2.60;;;20.30;1.00;;;;;;5051915;28;20456;-74
2021/06/28 05:54:53;;;;;;;57.97;2.40;;;20.30;1.00;;;;;;5052349;28;20512;-74
2021/06/28 05:57:22;;;;;;;58.07;2.70;;;20.30;1.00;;;;;;5052260;28;20576;-74
2021/06/28 05:59:51;;;;;;;58.97;2.70;;;20.40;1.00;;;;;;5052581;28;20491;-74
2021/06/28 06:02:18;;;;;;;58.30;2.40;;;20.50;1.00;;;;;;5052164;28;20454;-74
2021/06/28 06:04:45;;;;;;;58.53;3.00;;;20.50;1.00;;;;;;5052164;28;20453;-74
2021/06/28 06:07:12;;;;;;;57.87;2.47;;;20.50;1.00;;;;;;5052013;28;20447;-74
2021/06/28 06:09:39;;;;;;;58.47;2.50;;;20.60;1.00;;;;;;5052438;28;20457;-74
2021/06/28 06:12:07;;;;;;;58.17;2.40;;;20.70;1.00;;;;;;5051896;28;20529;-74
2021/06/28 06:14:34;;;;;;;58.30;2.50;;;20.80;1.00;;;;;;5052077;28;20558;-74
2021/06/28 06:17:03;;;;;;;57.93;2.60;;;20.90;1.00;;;;;;5052150;28;20500;-74
2021/06/28 06:19:30;;;;;;;57.97;2.70;;;21.00;1.00;;;;;;5051958;28;20544;-74
2021/06/28 06:21:57;;;;;;;58.40;2.60;;;21.00;1.00;;;;;;5052076;28;20538;-74
2021/06/28 06:24:27;;;;;;;57.83;2.77;;;21.10;1.00;;;;;;5051871;28;20858;-74
2021/06/28 06:26:56;;;;;;;57.73;2.60;;;21.20;1.00;;;;;;5052232;28;20479;-74
2021/06/28 06:29:23;;;;;;;58.87;3.67;;;21.30;1.00;;;;;;5051808;28;20462;-74
2021/06/28 06:31:50;;;;;;;59.67;2.80;;;21.30;1.00;;;;;;5051576;28;20484;-74
2021/06/28 06:34:18;;;;;;;57.67;2.40;;;21.40;1.00;;;;;;5051744;28;20493;-74
2021/06/28 06:36:45;;;;;;;57.87;2.40;;;21.40;1.00;;;;;;5051937;28;20878;-74
2021/06/28 06:39:12;;;;;;;58.17;2.50;;;21.50;1.00;;;;;;5051899;28;20470;-74
2021/06/28 06:41:39;;;;;;;57.97;2.30;;;21.60;1.00;;;;;;5051503;28;20489;-74
2021/06/28 06:44:06;;;;;;;58.07;2.63;;;21.70;1.00;;;;;;5051041;28;20557;-74
2021/06/28 06:46:33;;;;;;;57.60;2.40;;;21.80;1.00;;;;;;5051754;28;20975;-74
2021/06/28 06:49:00;;;;;;;58.37;2.80;;;21.90;1.00;;;;;;5051454;28;20582;-74
2021/06/28 06:51:29;;;;;;;57.60;2.77;;;22.00;1.00;;;;;;5051196;28;20452;-74
2021/06/28 06:53:56;;;;;;;58.53;3.00;;;22.10;1.00;;;;;;5051670;28;20963;-74
2021/06/28 06:56:23;;;;;;;57.93;2.67;;;22.20;1.00;;;;;;5051690;28;20449;-74
2021/06/28 06:58:50;;;;;;;58.27;2.60;;;22.30;1.00;;;;;;5051525;28;20519;-73
2021/06/28 07:01:17;;;;;;;58.17;2.87;;;22.30;1.00;;;;;;5051380;28;21187;-74
2021/06/28 07:03:44;;;;;;;58.10;2.67;;;22.40;1.00;;;;;;5051675;28;20471;-74
2021/06/28 07:06:11;;;;;;;57.93;2.60;;;22.30;1.00;;;;;;5051323;28;20448;-74
2021/06/28 07:08:40;;;;;;;57.20;2.70;;;22.40;1.00;;;;;;5051705;28;20538;-74
2021/06/28 07:11:11;;;;;;;58.37;2.80;;;22.40;1.00;;;;;;5051543;28;20534;-74
2021/06/28 07:13:38;;;;;;;58.20;2.70;;;22.50;1.00;;;;;;5051392;28;20482;-74
2021/06/28 07:16:06;;;;;;;58.07;2.70;;;22.60;1.00;;;;;;5051347;28;20543;-74
2021/06/28 07:18:33;;;;;;;58.57;2.93;;;22.60;1.00;;;;;;5051440;28;20520;-74
2021/06/28 07:21:00;;;;;;;58.00;2.70;;;22.70;1.00;;;;;;5051352;28;21006;-74
2021/06/28 07:23:27;;;;;;;58.57;3.00;;;22.80;1.00;;;;;;5051280;28;20559;-74
2021/06/28 07:25:55;;;;;;;58.50;2.60;;;22.90;1.00;;;;;;5051226;28;20466;-74
2021/06/28 07:28:22;;;;;;;58.03;2.60;;;22.90;1.00;;;;;;5051243;28;20448;-74
2021/06/28 07:30:49;;;;;;;58.50;3.03;;;23.00;1.00;;;;;;5051561;28;20543;-74
2021/06/28 07:33:16;;;;;;;58.40;2.40;;;23.00;1.00;;;;;;5050934;28;21014;-74
2021/06/28 07:35:43;;;;;;;58.70;3.17;;;23.10;1.00;;;;;;5051086;28;20542;-74
2021/06/28 07:38:10;;;;;;;57.87;2.50;;;23.30;1.00;;;;;;5051052;28;20579;-73
2021/06/28 07:40:37;;;;;;;58.23;2.50;;;23.40;1.00;;;;;;5051719;28;20969;-74
2021/06/28 07:43:05;;;;;;;58.07;2.70;;;23.50;1.00;;;;;;5050722;28;20562;-74
2021/06/28 07:45:32;;;;;;;58.20;2.70;;;23.60;1.00;;;;;;5051373;28;20513;-74
2021/06/28 07:47:59;;;;;;;57.93;2.70;;;23.60;1.00;;;;;;5051131;28;20478;-74
2021/06/28 07:50:26;;;;;;;57.97;2.40;;;23.80;1.00;;;;;;5051111;28;20452;-74
2021/06/28 07:52:53;;;;;;;58.20;2.73;;;23.90;1.00;;;;;;5050818;28;20535;-74
2021/06/28 07:55:19;;;;;;;58.10;2.53;;;24.00;1.00;;;;;;5053473;28;20448;-74
2021/06/28 07:57:46;;;;;;;58.30;2.37;;;24.10;1.00;;;;;;5054527;28;20979;-74
2021/06/28 08:00:17;;;;;;;58.37;2.80;;;24.30;1.00;;;;;;5054891;28;20539;-74
2021/06/28 08:02:44;;;;;;;58.17;2.40;;;24.40;1.00;;;;;;5054244;28;20889;-74
2021/06/28 08:05:12;;;;;;;57.97;2.47;;;24.40;1.00;;;;;;5054606;28;20454;-74
2021/06/28 08:07:38;;;;;;;58.23;2.50;;;24.50;1.00;;;;;;5054432;28;20542;-74
2021/06/28 08:10:08;;;;;;;58.63;2.77;;;24.70;1.00;;;;;;5054312;28;20476;-73
2021/06/28 08:12:35;;;;;;;58.17;2.50;;;24.80;1.00;;;;;;5054034;28;20554;-74
2021/06/28 08:15:02;;;;;;;57.90;2.40;;;24.90;1.00;;;;;;5054520;28;20536;-74
2021/06/28 08:17:30;;;;;;;58.00;2.50;;;25.10;1.00;;;;;;5054074;28;21079;-73
2021/06/28 08:19:57;;;;;;;57.57;2.23;;;25.30;1.00;;;;;;5054270;28;20532;-73
2021/06/28 08:22:24;;;;;;;58.17;2.50;;;25.40;1.00;;;;;;5053886;28;20453;-74
2021/06/28 08:24:51;;;;;;;58.07;2.50;;;25.60;1.00;;;;;;5053986;28;20552;-73
2021/06/28 08:27:17;;;;;;;57.83;2.30;;;25.60;1.00;;;;;;5054074;28;21020;-73
2021/06/28 08:29:44;;;;;;;57.97;2.43;;;25.80;1.00;;;;;;5054084;28;20787;-74
2021/06/28 08:32:11;;;;;;;58.03;2.87;;;25.90;1.00;;;;;;5053746;28;20446;-73
2021/06/28 08:34:40;;;;;;;58.00;2.30;;;26.10;1.00;;;;;;5053817;28;20486;-74
2021/06/28 08:37:07;;;;;;;57.97;2.33;;;26.20;1.00;;;;;;5053740;28;20536;-74
2021/06/28 08:39:34;;;;;;;58.30;2.23;;;26.30;1.00;;;;;;5053992;28;20486;-74
2021/06/28 08:42:05;;;;;;;57.87;2.30;;;26.40;1.00;;;;;;5053678;28;20563;-73
2021/06/28 08:44:33;;;;;;;58.00;2.30;;;26.50;1.00;;;;;;5053757;28;20477;-74
2021/06/28 08:47:00;;;;;;;57.97;2.50;;;26.60;1.00;;;;;;5053824;28;20468;-74
2021/06/28 08:49:27;;;;;;;58.20;2.50;;;26.70;1.00;;;;;;5053678;28;20446;-74
2021/06/28 08:51:56;;;;;;;57.97;2.20;;;26.80;1.00;;;;;;5053282;28;20490;-74
2021/06/28 08:54:23;;;;;;;57.80;2.10;;;27.00;1.00;;;;;;5053701;28;20546;-73
2021/06/28 08:56:50;;;;;;;58.07;2.30;;;27.10;1.00;;;;;;5053596;28;20944;-73
2021/06/28 08:59:17;;;;;;;57.90;2.20;;;27.30;1.00;;;;;;5053553;28;20487;-74
2021/06/28 09:01:44;;;;;;;57.80;2.30;;;27.40;1.00;;;;;;5053194;28;20954;-74
2021/06/28 09:04:11;;;;;;;57.73;2.23;;;27.60;1.00;;;;;;5053097;28;20510;-74
2021/06/28 09:06:38;;;;;;;57.90;2.10;;;27.60;1.00;;;;;;5053134;28;20470;-74
2021/06/28 09:09:09;;;;;;;58.00;2.37;;;27.70;1.00;;;;;;5053160;28;20535;-74
2021/06/28 09:11:37;;;;;;;57.93;2.20;;;27.80;1.00;;;;;;5053160;28;20871;-74
2021/06/28 09:14:05;;;;;;;58.27;2.40;;;27.80;1.00;;;;;;5053143;28;20466;-73
2021/06/28 09:16:33;;;;;;;57.70;2.13;;;27.90;1.00;;;;;;5053172;28;20450;-74
2021/06/28 09:19:02;;;;;;;57.90;2.20;;;28.10;1.00;;;;;;5052854;28;20488;-74
2021/06/28 09:21:34;;;;;;;57.73;2.20;;;28.20;1.00;;;;;;5053061;28;20480;-73
2021/06/28 09:24:30;;;;;;;57.97;2.40;;;28.30;1.00;;;;;;5087173;28;20562;-74
2021/06/28 09:27:20;;;;;;;57.77;2.17;;;28.40;1.00;;;;;;5049443;28;20456;-73
2021/06/28 09:29:52;;;;;;;57.97;2.40;;;28.50;1.00;;;;;;5049033;28;20542;-74
2021/06/28 09:32:20;;;;;;;57.77;2.00;;;28.50;1.00;;;;;;5048747;28;20864;-73
2021/06/28 09:34:49;;;;;;;58.17;2.27;;;28.60;1.00;;;;;;5048998;28;20458;-73
2021/06/28 09:37:18;;;;;;;58.50;2.50;;;28.80;1.00;;;;;;5048930;28;20539;-72
2021/06/28 09:39:48;;;;;;;57.63;2.27;;;28.90;1.00;;;;;;5048882;28;20444;-72
2021/06/28 09:42:17;;;;;;;58.03;2.20;;;29.00;1.00;;;;;;5050534;28;20525;-73
2021/06/28 09:44:53;;;;;;;58.00;2.30;;;29.20;1.00;;;;;;5068780;28;20901;-73
2021/06/28 09:47:22;;;;;;;57.60;2.10;;;29.30;1.00;;;;;;5068551;28;20447;-73
2021/06/28 09:50:01;;;;;;;57.57;2.00;;;29.50;1.00;;;;;;5068949;28;20483;-73
2021/06/28 09:52:30;;;;;;;57.60;2.13;;;29.60;1.00;;;;;;5068629;28;20499;-73
2021/06/28 09:55:12;;;;;;;57.70;2.03;;;29.60;1.00;;;;;;5068466;28;20487;-73
2021/06/28 09:57:39;;;;;;;58.17;2.30;;;29.70;1.00;;;;;;5068607;28;20539;-73
2021/06/28 10:00:24;;;;;;;57.90;2.20;;;29.90;1.00;;;;;;5068349;28;20540;-71
2021/06/28 10:02:51;;;;;;;57.47;2.20;;;30.10;1.00;;;;;;5067920;28;20494;-71
2021/06/28 10:05:20;;;;;;;57.80;2.30;;;30.40;1.00;;;;;;5068477;28;20540;-73
2021/06/28 10:07:47;;;;;;;57.90;2.40;;;30.60;1.00;;;;;;5068548;28;20945;-73
2021/06/28 10:10:22;;;;;;;57.20;2.20;;;30.80;1.00;;;;;;5067246;28;20484;-73
2021/06/28 10:13:01;;;;;;;57.90;2.20;;;31.00;1.00;;;;;;5067630;28;20579;-73
2021/06/28 10:15:30;;;;;;;58.00;2.20;;;31.20;1.00;;;;;;5068201;28;20482;-73
2021/06/28 10:17:57;;;;;;;57.80;2.20;;;31.50;1.00;;;;;;5068023;28;20454;-73
2021/06/28 10:20:27;;;;;;;57.37;2.30;;;31.80;1.00;;;;;;5067799;28;20455;-73
2021/06/28 10:22:55;;;;;;;57.60;2.40;;;32.00;1.00;;;;;;5067404;28;20930;-73
2021/06/28 10:25:25;;;;;;;57.50;2.33;;;32.30;1.00;;;;;;5067660;28;20444;-73
2021/06/28 10:27:52;;;;;;;57.67;2.10;;;32.90;1.00;;;;;;5067740;28;20535;-70
2021/06/28 10:30:21;;;;;;;57.60;2.30;;;33.90;1.00;;;;;;5067792;28;20455;-70
2021/06/28 10:32:50;;;;;;;57.37;2.20;;;34.90;1.00;;;;;;5067191;28;20455;-70
2021/06/28 10:35:24;;;;;;;57.50;2.20;;;35.60;1.00;;;;;;5056050;28;20459;-70
2021/06/28 10:37:51;;;;;;;57.40;2.10;;;36.50;1.00;;;;;;5054341;28;20441;-70
2021/06/28 10:40:20;;;;;;;57.27;2.33;;;37.30;1.00;;;;;;5054285;28;20444;-71
2021/06/28 10:42:51;;;;;;;56.90;2.20;;;38.10;1.00;;;;;;5041997;28;20576;-71
2021/06/28 10:45:38;;;;;;;57.43;2.33;;;38.70;1.00;;;;;;5047929;28;20453;-71
2021/06/28 10:48:11;;;;;;;57.00;2.50;;;39.20;1.00;;;;;;5054204;28;20530;-70
2021/06/28 10:50:55;;;;;;;57.27;2.50;;;39.60;1.00;;;;;;5054270;28;20518;-71
2021/06/28 10:54:17;;;;;;;56.97;2.33;;;40.10;1.00;;;;;;5053686;28;20551;-71
2021/06/28 10:56:59;;;;;;;57.20;2.70;;;40.70;1.00;;;;;;5053869;28;20826;-71
2021/06/28 10:59:33;;;;;;;56.87;2.37;;;41.50;1.00;;;;;;5054185;28;20822;-71
2021/06/28 11:02:08;;;;;;;56.37;2.17;;;41.90;1.00;;;;;;5053740;28;20444;-71
2021/06/28 11:04:41;;;;;;;56.93;2.43;;;41.60;1.00;;;;;;5053783;28;20488;-71
2021/06/28 11:07:15;;;;;;;56.57;2.30;;;41.60;1.00;;;;;;5053725;28;20499;-71
2021/06/28 11:09:46;;;;;;;57.20;2.20;;;41.70;1.00;;;;;;5054203;28;20890;-71
2021/06/28 11:12:31;;;;;;;57.20;2.40;;;42.10;1.00;;;;;;5052822;28;20539;-72
2021/06/28 11:15:08;;;;;;;56.90;2.13;;;42.70;1.00;;;;;;5047839;28;20481;-72
2021/06/28 11:17:46;;;;;;;56.80;2.60;;;42.80;1.00;;;;;;5033711;28;20448;-71
2021/06/28 11:20:24;;;;;;;56.47;2.20;;;42.60;1.00;;;;;;5033989;28;20453;-72
2021/06/28 11:23:00;;;;;;;56.77;2.53;;;42.50;1.00;;;;;;5033342;28;20502;-72
2021/06/28 11:25:28;;;;;;;56.37;2.10;;;42.60;1.00;;;;;;5033653;28;20453;-72
2021/06/28 11:28:17;;;;;;;55.90;2.27;;;42.80;1.00;;;;;;5033685;28;20488;-72
2021/06/28 11:30:57;;;;;;;57.07;2.37;;;42.60;1.00;;;;;;5033805;28;20445;-72
2021/06/28 11:33:41;;;;;;;57.07;2.90;;;42.00;1.00;;;;;;5033204;28;21036;-72
2021/06/28 11:36:37;;;;;;;56.90;2.40;;;41.50;1.00;;;;;;5033406;28;20445;-72
2021/06/28 11:39:27;;;;;;;56.77;2.40;;;41.40;1.00;;;;;;5033572;28;20524;-72
2021/06/28 11:42:20;;;;;;;57.17;2.40;;;41.50;1.00;;;;;;5033178;28;20461;-72
2021/06/28 11:44:51;;;;;;;57.17;2.77;;;41.60;1.00;;;;;;5029978;28;20575;-72
2021/06/28 11:47:34;;;;;;;56.50;2.17;;;41.90;1.00;;;;;;5032510;28;20520;-72
2021/06/28 11:50:30;;;;;;;55.70;1.90;;;42.20;1.00;;;;;;5033234;28;20464;-72
2021/06/28 11:52:59;;;;;;;56.57;1.80;;;42.70;1.00;;;;;;5033076;28;21028;-72
2021/06/28 11:55:26;;;;;;;56.43;1.90;;;43.30;1.00;;;;;;5033172;28;20815;-72
2021/06/28 11:57:54;;;;;;;56.90;2.63;;;43.70;1.00;;;;;;5033037;28;20970;-72
2021/06/28 12:00:22;;;;;;;55.87;1.80;;;43.80;1.00;;;;;;5033037;28;20540;-72
2021/06/28 12:03:10;;;;;;;56.40;2.00;;;43.80;1.00;;;;;;5032949;28;20469;-72
2021/06/28 12:05:39;;;;;;;56.40;2.03;;;43.60;1.00;;;;;;5032792;28;20453;-72
2021/06/28 12:08:06;;;;;;;57.00;2.20;;;42.80;1.00;;;;;;5032981;28;20548;-72
2021/06/28 12:10:33;;;;;;;56.67;2.27;;;42.30;1.00;;;;;;5032936;28;20446;-72
2021/06/28 12:13:01;;;;;;;57.30;2.40;;;41.90;1.00;;;;;;5032486;28;20893;-72
2021/06/28 12:15:29;;;;;;;58.07;2.83;;;41.50;1.00;;;;;;5048336;28;20888;-72
2021/06/28 12:17:58;;;;;;;57.00;2.50;;;40.90;1.00;;;;;;5032495;28;20445;-71
2021/06/28 12:20:25;;;;;;;56.57;2.13;;;40.60;1.00;;;;;;5032899;28;20532;-72
2021/06/28 12:22:52;;;;;;;57.07;2.40;;;40.50;1.00;;;;;;5032174;28;20513;-72
2021/06/28 12:25:21;;;;;;;56.80;2.07;;;40.50;1.00;;;;;;5032585;28;20536;-72
2021/06/28 12:27:49;;;;;;;56.67;2.10;;;40.60;1.00;;;;;;5032599;28;20507;-71
2021/06/28 12:30:19;;;;;;;56.63;2.20;;;41.00;1.00;;;;;;5033048;28;20477;-72
2021/06/28 12:32:47;;;;;;;56.80;2.13;;;41.70;1.00;;;;;;5050257;28;20559;-74
2021/06/28 12:35:18;;;;;;;55.93;2.33;;;42.20;1.00;;;;;;5052299;28;20447;-73
2021/06/28 12:37:48;;;;;;;57.07;2.50;;;42.80;1.00;;;;;;5052367;28;20456;-73
2021/06/28 12:40:18;;;;;;;57.20;2.83;;;43.30;1.00;;;;;;5052289;28;20452;-74
2021/06/28 12:42:46;;;;;;;56.40;2.47;;;43.50;1.00;;;;;;5051784;28;20468;-74
2021/06/28 12:45:15;;;;;;;56.13;2.00;;;43.10;1.00;;;;;;5052095;28;20475;-73
2021/06/28 12:47:43;;;;;;;56.97;2.10;;;42.50;1.00;;;;;;5052427;28;20448;-73
2021/06/28 12:50:16;;;;;;;56.20;2.47;;;42.00;1.00;;;;;;5052186;28;20543;-73
2021/06/28 12:52:43;;;;;;;57.10;2.70;;;41.60;1.00;;;;;;5052077;28;20553;-73
2021/06/28 12:55:14;;;;;;;55.90;2.40;;;41.40;1.00;;;;;;5052097;28;20444;-74
2021/06/28 12:57:43;;;;;;;56.90;2.07;;;41.30;1.00;;;;;;5052042;28;20444;-73